Napoleon, North Dakota
Current Conditions -  °F | °C
As of 11:15 AM on Wednesday 26 Nov 2014 (Local Time) from K7L2 Reporting Station
Light Snow Light Snow  
Wind Chill: -3°   Ceiling: 1400
Heat Index:   Visibility: 2.5mi
Dew Point:   Wind: 6mph
Humidity: 85%   Direction: 10°N
Pressure: 30.37"   Gusts: NA
Location:  46.51°N, 99.77°W
Report Text: K7L2 261715Z AUTO 01005KT 2 1/2SM -SN FEW002 BKN014 OVC033 M14/M16 A3037 RMK AO2 P0002
Loading
Personal Weather Stations






























Interactive Weather Map New forecast layout! Learn more

10-Day Weather Forecast

Advertisements
Track Severe Weather on mobile